Time;durP1;ratioP1;P1;durP2;ratioP2;P2;SDS_P1;SDS_P2;PMS_P1;PMS_P2;Temp;Humidity;BMP_temperature;BMP_pressure;BME280_temperature;BME280_humidity;BME280_pressure;Samples;Min_cycle;Max_cycle;Signal;HPM_P1;HPM_P2
2023/07/19 00:01:35;;;;;;;6.47;4.03;;;;;;;;;;5009474;28;20280;-69
2023/07/19 00:04:00;;;;;;;6.60;4.20;;;;;;;;;;5007710;28;20297;-69
2023/07/19 00:06:25;;;;;;;6.47;3.93;;;;;;;;;;4988245;28;20383;-70
2023/07/19 00:08:51;;;;;;;5.03;3.55;;;;;;;;;;4988624;28;20443;-70
2023/07/19 00:11:16;;;;;;;5.47;3.63;;;;;;;;;;5005209;28;20026;-68
2023/07/19 00:13:41;;;;;;;5.68;3.72;;;;;;;;;;4988567;28;20806;-68
2023/07/19 00:16:06;;;;;;;6.07;4.05;;;;;;;;;;5005937;28;20029;-69
2023/07/19 00:18:32;;;;;;;4.88;3.63;;;;;;;;;;5003395;28;20033;-70
2023/07/19 00:20:57;;;;;;;7.75;4.07;;;;;;;;;;5005089;28;20517;-69
2023/07/19 00:23:22;;;;;;;5.68;4.03;;;;;;;;;;5005434;28;20028;-69
2023/07/19 00:25:48;;;;;;;7.57;4.20;;;;;;;;;;4987239;28;20030;-69
2023/07/19 00:28:13;;;;;;;5.82;4.00;;;;;;;;;;5006136;28;20344;-69
2023/07/19 00:30:38;;;;;;;6.07;3.83;;;;;;;;;;5003871;28;20022;-70
2023/07/19 00:33:04;;;;;;;5.10;3.80;;;;;;;;;;4995790;28;20279;-70
2023/07/19 00:35:29;;;;;;;5.88;3.90;;;;;;;;;;4973651;28;20061;-68
2023/07/19 00:37:54;;;;;;;6.20;3.35;;;;;;;;;;5005786;28;20664;-70
2023/07/19 00:40:19;;;;;;;5.97;3.72;;;;;;;;;;4987563;28;20540;-69
2023/07/19 00:42:45;;;;;;;4.55;3.80;;;;;;;;;;5005773;28;20570;-70
2023/07/19 00:45:10;;;;;;;5.90;4.27;;;;;;;;;;4989906;28;20803;-70
2023/07/19 00:47:35;;;;;;;6.80;3.80;;;;;;;;;;5005209;28;20265;-70
2023/07/19 00:50:01;;;;;;;5.63;3.73;;;;;;;;;;4985152;28;20029;-70
2023/07/19 00:52:26;;;;;;;5.53;4.20;;;;;;;;;;5005477;28;20296;-70
2023/07/19 00:54:51;;;;;;;4.90;3.97;;;;;;;;;;5004047;28;21101;-69
2023/07/19 00:57:16;;;;;;;4.77;3.70;;;;;;;;;;5005355;28;20667;-69
2023/07/19 00:59:42;;;;;;;6.82;3.95;;;;;;;;;;4987648;28;20264;-70
2023/07/19 01:02:07;;;;;;;6.10;4.00;;;;;;;;;;4965052;28;1144709;-70
2023/07/19 01:04:33;;;;;;;5.75;4.07;;;;;;;;;;4987682;28;20021;-68
2023/07/19 01:06:58;;;;;;;6.13;4.35;;;;;;;;;;4990849;28;20086;-69
2023/07/19 01:09:23;;;;;;;7.57;3.70;;;;;;;;;;5018087;28;20533;-69
2023/07/19 01:11:48;;;;;;;6.68;4.13;;;;;;;;;;4993352;28;20782;-70
2023/07/19 01:14:14;;;;;;;5.87;4.13;;;;;;;;;;5005917;28;20034;-69
2023/07/19 01:16:39;;;;;;;8.20;4.67;;;;;;;;;;4987978;28;20867;-69
2023/07/19 01:19:04;;;;;;;8.10;4.85;;;;;;;;;;4984841;28;20285;-66
2023/07/19 01:21:29;;;;;;;6.80;4.43;;;;;;;;;;4997890;28;20116;-69
2023/07/19 01:23:55;;;;;;;6.55;4.35;;;;;;;;;;4973423;28;20869;-68
2023/07/19 01:26:20;;;;;;;7.03;4.18;;;;;;;;;;5003832;28;20069;-68
2023/07/19 01:28:46;;;;;;;8.33;4.07;;;;;;;;;;4988371;28;20033;-69
2023/07/19 01:31:13;;;;;;;7.20;4.07;;;;;;;;;;5005603;28;20648;-69
2023/07/19 01:33:38;;;;;;;7.10;4.45;;;;;;;;;;5006368;28;20265;-69
2023/07/19 01:36:03;;;;;;;5.65;3.97;;;;;;;;;;4984252;28;20029;-71
2023/07/19 01:38:29;;;;;;;8.85;5.13;;;;;;;;;;4991107;28;20557;-69
2023/07/19 01:40:54;;;;;;;6.85;4.43;;;;;;;;;;4992049;28;20022;-70
2023/07/19 01:43:19;;;;;;;7.72;4.45;;;;;;;;;;4978520;28;20053;-68
2023/07/19 01:45:45;;;;;;;7.10;4.35;;;;;;;;;;4959223;28;20406;-67
2023/07/19 01:48:10;;;;;;;6.20;4.10;;;;;;;;;;5013733;28;20042;-69
2023/07/19 01:50:35;;;;;;;5.90;4.57;;;;;;;;;;4987054;28;20049;-69
2023/07/19 01:53:01;;;;;;;8.00;4.60;;;;;;;;;;4997951;28;20675;-70
2023/07/19 01:55:26;;;;;;;7.45;4.70;;;;;;;;;;4995458;28;20296;-70
2023/07/19 01:57:51;;;;;;;8.03;5.13;;;;;;;;;;4987764;28;20053;-68
2023/07/19 02:00:16;;;;;;;6.10;4.23;;;;;;;;;;4989087;28;20466;-69
2023/07/19 02:02:42;;;;;;;6.47;4.50;;;;;;;;;;5008678;28;20445;-69
2023/07/19 02:05:07;;;;;;;5.85;4.20;;;;;;;;;;5005504;28;20486;-69
2023/07/19 02:07:33;;;;;;;6.47;4.40;;;;;;;;;;4987501;28;20064;-70
2023/07/19 02:09:58;;;;;;;6.75;4.15;;;;;;;;;;5003983;28;20070;-69
2023/07/19 02:12:23;;;;;;;6.60;4.78;;;;;;;;;;4971423;28;20041;-69
2023/07/19 02:14:48;;;;;;;8.13;4.80;;;;;;;;;;5009136;28;20482;-69
2023/07/19 02:17:14;;;;;;;7.78;4.53;;;;;;;;;;5011431;28;20606;-69
2023/07/19 02:19:39;;;;;;;7.67;4.80;;;;;;;;;;4977972;28;20417;-68
2023/07/19 02:22:04;;;;;;;6.03;4.47;;;;;;;;;;4993963;28;20522;-67
2023/07/19 02:24:30;;;;;;;8.52;4.88;;;;;;;;;;5011283;28;20288;-67
2023/07/19 02:26:55;;;;;;;8.00;5.47;;;;;;;;;;5011635;28;20030;-68
2023/07/19 02:29:20;;;;;;;5.83;4.63;;;;;;;;;;5012426;28;20446;-68
2023/07/19 02:31:45;;;;;;;7.57;5.30;;;;;;;;;;5009231;28;20345;-69
2023/07/19 02:34:11;;;;;;;6.18;4.32;;;;;;;;;;4993427;28;20276;-69
2023/07/19 02:36:36;;;;;;;7.78;4.32;;;;;;;;;;5012578;28;20475;-70
2023/07/19 02:39:02;;;;;;;8.18;4.70;;;;;;;;;;5008314;28;20569;-70
2023/07/19 02:41:28;;;;;;;8.15;4.55;;;;;;;;;;5009970;28;20041;-70
2023/07/19 02:43:53;;;;;;;6.95;5.00;;;;;;;;;;4993627;28;20045;-70
2023/07/19 02:46:20;;;;;;;6.17;4.50;;;;;;;;;;4990653;28;20121;-70
2023/07/19 02:48:45;;;;;;;5.90;4.65;;;;;;;;;;5011462;28;20102;-68
2023/07/19 02:51:10;;;;;;;10.02;4.93;;;;;;;;;;4997016;28;20113;-69
2023/07/19 02:53:36;;;;;;;6.27;4.83;;;;;;;;;;4989805;28;20042;-69
2023/07/19 02:56:02;;;;;;;8.13;4.97;;;;;;;;;;4993629;28;20338;-69
2023/07/19 02:58:27;;;;;;;8.13;4.90;;;;;;;;;;5011054;28;20038;-69
2023/07/19 03:00:53;;;;;;;6.13;4.93;;;;;;;;;;5011206;28;20792;-68
2023/07/19 03:03:19;;;;;;;9.38;5.05;;;;;;;;;;5008681;28;20380;-69
2023/07/19 03:05:44;;;;;;;8.63;4.80;;;;;;;;;;5010802;28;20521;-69
2023/07/19 03:08:09;;;;;;;8.27;5.10;;;;;;;;;;5008758;28;20279;-67
2023/07/19 03:10:35;;;;;;;8.27;4.90;;;;;;;;;;4993217;28;20505;-68
2023/07/19 03:13:00;;;;;;;7.18;5.40;;;;;;;;;;4992592;28;20308;-69
2023/07/19 03:15:27;;;;;;;11.20;4.95;;;;;;;;;;5010565;28;20042;-68
2023/07/19 03:17:52;;;;;;;8.05;5.03;;;;;;;;;;4993558;28;20548;-69
2023/07/19 03:20:18;;;;;;;9.60;5.30;;;;;;;;;;5010454;28;20042;-68
2023/07/19 03:22:43;;;;;;;8.47;5.57;;;;;;;;;;5010746;28;20786;-69
2023/07/19 03:25:08;;;;;;;8.13;5.20;;;;;;;;;;4991987;28;20281;-69
2023/07/19 03:27:34;;;;;;;8.05;5.40;;;;;;;;;;5004156;28;20300;-68
2023/07/19 03:29:59;;;;;;;8.20;5.55;;;;;;;;;;4989870;28;20124;-69
2023/07/19 03:32:25;;;;;;;10.02;6.13;;;;;;;;;;5007082;28;20052;-67
2023/07/19 03:34:50;;;;;;;8.73;5.47;;;;;;;;;;4990260;28;20038;-67
2023/07/19 03:37:15;;;;;;;9.03;5.33;;;;;;;;;;4980403;28;20402;-67
2023/07/19 03:39:40;;;;;;;9.88;6.35;;;;;;;;;;5007490;28;20265;-69
2023/07/19 03:42:07;;;;;;;9.05;5.50;;;;;;;;;;4989856;28;20430;-68
2023/07/19 03:44:32;;;;;;;8.20;5.53;;;;;;;;;;4987928;28;20056;-68
2023/07/19 03:46:57;;;;;;;8.70;6.00;;;;;;;;;;4991058;28;20058;-68
2023/07/19 03:49:22;;;;;;;9.30;5.77;;;;;;;;;;5007495;28;20293;-68
2023/07/19 03:51:48;;;;;;;10.02;5.97;;;;;;;;;;5006371;28;20446;-67
2023/07/19 03:54:13;;;;;;;8.60;5.40;;;;;;;;;;5005850;28;20057;-68
2023/07/19 03:56:38;;;;;;;7.78;5.43;;;;;;;;;;5007991;28;20291;-69
2023/07/19 03:59:03;;;;;;;9.63;6.07;;;;;;;;;;5004817;28;20069;-69
2023/07/19 04:01:29;;;;;;;8.45;5.47;;;;;;;;;;4994731;28;20347;-68
2023/07/19 04:03:54;;;;;;;7.53;5.30;;;;;;;;;;4986581;28;20478;-68
2023/07/19 04:06:19;;;;;;;6.80;5.33;;;;;;;;;;5007930;28;20330;-66
2023/07/19 04:08:44;;;;;;;7.97;5.03;;;;;;;;;;4974021;28;20133;-68
2023/07/19 04:11:10;;;;;;;6.43;5.22;;;;;;;;;;5007936;28;20348;-68
2023/07/19 04:13:35;;;;;;;8.35;5.68;;;;;;;;;;5005976;28;20058;-68
2023/07/19 04:16:01;;;;;;;9.40;5.70;;;;;;;;;;5013870;28;20064;-69
2023/07/19 04:18:26;;;;;;;11.48;5.80;;;;;;;;;;5008660;28;20788;-69
2023/07/19 04:20:55;;;;;;;9.85;5.40;;;;;;;;;;5004998;28;20038;-69
2023/07/19 04:23:20;;;;;;;8.82;5.38;;;;;;;;;;5006428;28;20026;-67
2023/07/19 04:25:45;;;;;;;7.03;5.27;;;;;;;;;;4989116;28;20418;-70
2023/07/19 04:28:11;;;;;;;7.27;5.40;;;;;;;;;;5006748;28;20299;-70
2023/07/19 04:30:36;;;;;;;10.43;5.90;;;;;;;;;;5004454;28;20314;-69
2023/07/19 04:33:04;;;;;;;7.93;5.30;;;;;;;;;;5004953;28;20049;-69
2023/07/19 04:35:29;;;;;;;8.73;5.20;;;;;;;;;;5006439;28;20292;-67
2023/07/19 04:37:54;;;;;;;11.38;6.00;;;;;;;;;;4987275;28;20060;-67
2023/07/19 04:40:20;;;;;;;7.60;5.57;;;;;;;;;;5006632;28;20395;-68
2023/07/19 04:42:45;;;;;;;8.80;5.82;;;;;;;;;;4988882;28;20277;-69
2023/07/19 04:45:10;;;;;;;9.93;5.50;;;;;;;;;;5014573;28;20030;-67
2023/07/19 04:47:37;;;;;;;8.18;5.90;;;;;;;;;;5005729;28;20621;-68
2023/07/19 04:50:04;;;;;;;10.27;6.35;;;;;;;;;;5003944;28;20049;-68
2023/07/19 04:52:29;;;;;;;10.30;5.70;;;;;;;;;;5002595;28;20030;-67
2023/07/19 04:54:54;;;;;;;11.20;5.30;;;;;;;;;;4998474;28;20509;-68
2023/07/19 04:57:20;;;;;;;8.80;5.73;;;;;;;;;;4997554;28;20306;-67
2023/07/19 04:59:46;;;;;;;10.77;5.82;;;;;;;;;;4977595;28;20332;-69
2023/07/19 05:02:13;;;;;;;9.37;5.10;;;;;;;;;;4993572;28;20160;-67
2023/07/19 05:04:38;;;;;;;11.70;5.63;;;;;;;;;;4995579;28;20293;-68
2023/07/19 05:07:04;;;;;;;11.75;6.18;;;;;;;;;;4992842;28;20537;-68
2023/07/19 05:09:29;;;;;;;9.80;5.88;;;;;;;;;;4996535;28;20827;-72
2023/07/19 05:11:54;;;;;;;10.37;5.90;;;;;;;;;;4995204;28;20129;-68
2023/07/19 05:14:20;;;;;;;10.30;5.77;;;;;;;;;;4996547;28;20280;-68
2023/07/19 05:16:45;;;;;;;14.27;5.57;;;;;;;;;;4974379;28;20985;-66
2023/07/19 05:19:11;;;;;;;12.32;5.80;;;;;;;;;;4994214;28;20034;-66
2023/07/19 05:21:36;;;;;;;11.15;5.82;;;;;;;;;;4974992;28;20053;-69
2023/07/19 05:24:01;;;;;;;12.18;5.90;;;;;;;;;;4957253;28;20041;-67
2023/07/19 05:26:27;;;;;;;11.15;5.85;;;;;;;;;;4994152;28;20048;-67
2023/07/19 05:28:52;;;;;;;10.37;5.70;;;;;;;;;;4976752;28;20053;-74
2023/07/19 05:31:18;;;;;;;10.60;6.00;;;;;;;;;;4993263;28;20816;-70
2023/07/19 05:33:43;;;;;;;10.02;5.43;;;;;;;;;;4993577;28;20722;-66
2023/07/19 05:36:08;;;;;;;8.75;5.53;;;;;;;;;;4992965;28;20313;-68
2023/07/19 05:38:34;;;;;;;8.50;5.15;;;;;;;;;;4962930;28;20805;-64
2023/07/19 05:41:00;;;;;;;7.78;5.25;;;;;;;;;;4998377;28;20097;-65
2023/07/19 05:43:26;;;;;;;9.68;5.30;;;;;;;;;;4996724;28;20125;-66
2023/07/19 05:45:51;;;;;;;9.52;5.68;;;;;;;;;;4993429;28;20060;-71
2023/07/19 05:48:16;;;;;;;8.50;4.97;;;;;;;;;;4991534;28;20497;-67
2023/07/19 05:50:41;;;;;;;9.20;5.60;;;;;;;;;;4959260;28;20347;-67
2023/07/19 05:53:07;;;;;;;9.63;5.53;;;;;;;;;;4992130;28;20383;-66
2023/07/19 05:55:32;;;;;;;8.90;5.03;;;;;;;;;;4991460;28;20312;-67
2023/07/19 05:57:57;;;;;;;9.45;5.18;;;;;;;;;;4993398;28;20809;-68
2023/07/19 06:00:28;;;;;;;7.07;5.67;;;;;;;;;;4993703;28;20157;-68
2023/07/19 06:02:56;;;;;;;8.55;5.30;;;;;;;;;;4993066;28;20293;-67
2023/07/19 06:05:25;;;;;;;8.20;5.43;;;;;;;;;;4975094;28;20034;-66
2023/07/19 06:07:50;;;;;;;8.68;5.25;;;;;;;;;;4993129;28;20042;-66
2023/07/19 06:10:16;;;;;;;7.97;5.13;;;;;;;;;;4992743;28;20430;-66
2023/07/19 06:12:42;;;;;;;6.97;4.95;;;;;;;;;;4991734;28;20490;-67
2023/07/19 06:15:07;;;;;;;7.22;5.00;;;;;;;;;;5011480;22;20046;-71
2023/07/19 06:17:32;;;;;;;7.55;5.30;;;;;;;;;;4986065;28;20548;-70
2023/07/19 06:19:58;;;;;;;8.17;5.37;;;;;;;;;;4975507;28;20055;-71
2023/07/19 06:22:23;;;;;;;8.53;5.20;;;;;;;;;;4973771;28;20352;-70
2023/07/19 06:24:48;;;;;;;10.87;5.77;;;;;;;;;;4980497;28;20118;-72
2023/07/19 06:27:16;;;;;;;6.75;4.82;;;;;;;;;;4974154;28;20875;-71
2023/07/19 06:29:42;;;;;;;7.88;5.18;;;;;;;;;;4975273;28;20049;-71
2023/07/19 06:32:07;;;;;;;7.90;5.03;;;;;;;;;;4973875;28;20039;-70
2023/07/19 06:34:32;;;;;;;8.55;5.80;;;;;;;;;;4998838;23;20045;-72
2023/07/19 06:36:57;;;;;;;9.07;4.90;;;;;;;;;;4981751;28;20034;-69
2023/07/19 06:39:23;;;;;;;8.02;5.40;;;;;;;;;;5001878;28;20568;-74
2023/07/19 06:41:48;;;;;;;7.23;4.93;;;;;;;;;;4979531;28;20042;-73
2023/07/19 06:44:13;;;;;;;10.10;5.00;;;;;;;;;;5001797;28;20288;-72
2023/07/19 06:46:38;;;;;;;9.50;4.77;;;;;;;;;;4982787;28;20148;-74
2023/07/19 06:49:04;;;;;;;6.80;4.97;;;;;;;;;;5001518;28;20556;-75
2023/07/19 06:51:29;;;;;;;8.23;5.27;;;;;;;;;;4982540;28;20304;-74
2023/07/19 06:53:54;;;;;;;7.32;4.30;;;;;;;;;;4981577;28;20053;-76
2023/07/19 06:56:19;;;;;;;6.00;4.10;;;;;;;;;;5000446;28;20038;-70
2023/07/19 06:58:45;;;;;;;7.63;5.27;;;;;;;;;;4983783;28;20038;-73
2023/07/19 07:01:10;;;;;;;9.57;4.57;;;;;;;;;;5005524;28;20292;-74
2023/07/19 07:03:35;;;;;;;5.57;3.97;;;;;;;;;;4983850;28;20037;-76
2023/07/19 07:06:01;;;;;;;6.87;4.20;;;;;;;;;;4984894;28;20034;-72
2023/07/19 07:08:26;;;;;;;6.30;4.68;;;;;;;;;;5005131;28;20289;-73
2023/07/19 07:10:51;;;;;;;5.47;4.35;;;;;;;;;;4988010;28;20041;-76
2023/07/19 07:13:16;;;;;;;5.67;4.27;;;;;;;;;;5003386;28;20121;-72
2023/07/19 07:15:41;;;;;;;6.43;4.60;;;;;;;;;;4991211;28;20362;-72
2023/07/19 07:18:07;;;;;;;5.33;3.90;;;;;;;;;;4988679;28;20045;-74
2023/07/19 07:20:35;;;;;;;5.90;4.17;;;;;;;;;;5004928;28;20664;-74
2023/07/19 07:23:01;;;;;;;6.43;4.30;;;;;;;;;;4981163;28;20303;-74
2023/07/19 07:25:26;;;;;;;6.13;3.88;;;;;;;;;;4980802;28;20491;-72
2023/07/19 07:27:51;;;;;;;5.18;4.15;;;;;;;;;;5006376;28;20034;-74
2023/07/19 07:30:16;;;;;;;6.03;4.17;;;;;;;;;;4985702;28;20418;-74
2023/07/19 07:32:42;;;;;;;4.38;3.55;;;;;;;;;;5006102;28;20455;-75
2023/07/19 07:35:07;;;;;;;6.00;4.00;;;;;;;;;;5005087;28;20442;-70
2023/07/19 07:37:32;;;;;;;5.55;4.20;;;;;;;;;;5004471;28;20037;-74
2023/07/19 07:39:58;;;;;;;6.17;3.77;;;;;;;;;;5004482;28;20453;-75
2023/07/19 07:42:24;;;;;;;4.32;3.58;;;;;;;;;;5005475;28;20317;-75
2023/07/19 07:44:49;;;;;;;5.72;3.90;;;;;;;;;;5005063;28;20166;-76
2023/07/19 07:47:15;;;;;;;5.10;3.88;;;;;;;;;;4966029;28;20038;-73
2023/07/19 07:49:40;;;;;;;6.30;3.70;;;;;;;;;;4973008;28;20589;-74
2023/07/19 07:52:05;;;;;;;4.83;3.83;;;;;;;;;;4989775;28;20537;-75
2023/07/19 07:54:30;;;;;;;5.13;3.97;;;;;;;;;;4989615;28;20506;-74
2023/07/19 07:56:56;;;;;;;5.20;3.53;;;;;;;;;;5005649;28;20044;-70
2023/07/19 07:59:21;;;;;;;4.17;3.47;;;;;;;;;;5006337;28;20077;-74
2023/07/19 08:01:46;;;;;;;5.50;3.93;;;;;;;;;;4980229;28;20037;-74
2023/07/19 08:04:12;;;;;;;5.93;3.40;;;;;;;;;;5008168;28;20284;-72
2023/07/19 08:06:37;;;;;;;5.63;3.95;;;;;;;;;;4972043;28;20288;-75
2023/07/19 08:09:03;;;;;;;4.60;3.83;;;;;;;;;;5013716;28;20052;-69
2023/07/19 08:11:28;;;;;;;4.75;3.42;;;;;;;;;;5006432;28;20095;-71
2023/07/19 08:13:53;;;;;;;5.17;3.57;;;;;;;;;;4986746;28;20064;-71
2023/07/19 08:16:19;;;;;;;4.72;3.65;;;;;;;;;;4988280;28;20033;-71
2023/07/19 08:18:44;;;;;;;5.50;3.40;;;;;;;;;;4988753;28;20177;-72
2023/07/19 08:21:10;;;;;;;4.53;3.50;;;;;;;;;;5006668;28;20030;-68
2023/07/19 08:23:35;;;;;;;5.47;3.55;;;;;;;;;;4989516;28;20347;-74
2023/07/19 08:26:01;;;;;;;4.03;3.00;;;;;;;;;;4988578;28;20481;-72
2023/07/19 08:28:26;;;;;;;5.03;3.40;;;;;;;;;;5006434;28;20169;-72
2023/07/19 08:30:51;;;;;;;5.03;3.20;;;;;;;;;;5002170;28;20514;-73
2023/07/19 08:33:17;;;;;;;5.28;3.42;;;;;;;;;;4987598;28;20519;-73
2023/07/19 08:35:42;;;;;;;4.60;3.58;;;;;;;;;;4996069;28;20034;-73
2023/07/19 08:38:07;;;;;;;4.43;3.37;;;;;;;;;;5006230;28;20516;-70
2023/07/19 08:40:34;;;;;;;4.85;3.40;;;;;;;;;;4971483;28;20524;-72
2023/07/19 08:43:00;;;;;;;4.65;3.40;;;;;;;;;;4987053;28;20502;-71
2023/07/19 08:45:25;;;;;;;4.00;3.03;;;;;;;;;;4987461;28;20109;-71
2023/07/19 08:47:50;;;;;;;4.00;3.00;;;;;;;;;;4987641;28;20123;-72
2023/07/19 08:50:16;;;;;;;3.92;3.05;;;;;;;;;;5006096;28;20419;-69
2023/07/19 08:52:41;;;;;;;3.92;2.78;;;;;;;;;;4987831;28;20042;-72
2023/07/19 08:55:07;;;;;;;4.33;3.10;;;;;;;;;;4983065;28;20053;-71
2023/07/19 08:57:32;;;;;;;3.78;3.05;;;;;;;;;;4987230;28;20280;-71
2023/07/19 08:59:57;;;;;;;4.20;2.97;;;;;;;;;;4972079;28;20036;-70
2023/07/19 09:02:23;;;;;;;5.47;3.50;;;;;;;;;;4988110;28;20289;-72
2023/07/19 09:05:04;;;;;;;3.40;3.03;;;;;;;;;;5005634;28;20273;-72
2023/07/19 09:07:29;;;;;;;3.83;2.90;;;;;;;;;;4987597;28;20100;-70
2023/07/19 09:09:54;;;;;;;4.57;2.93;;;;;;;;;;5005837;28;20042;-71
2023/07/19 09:12:20;;;;;;;4.45;2.80;;;;;;;;;;4987525;28;20100;-69
2023/07/19 09:14:45;;;;;;;3.43;2.60;;;;;;;;;;4988294;28;20037;-69
2023/07/19 09:17:10;;;;;;;4.23;2.67;;;;;;;;;;4986979;28;20044;-71
2023/07/19 09:19:42;;;;;;;5.40;3.40;;;;;;;;;;4958400;28;20034;-71
2023/07/19 09:22:08;;;;;;;4.75;2.92;;;;;;;;;;4999497;28;20113;-72
2023/07/19 09:24:33;;;;;;;5.32;3.10;;;;;;;;;;4981481;28;20056;-71
2023/07/19 09:27:00;;;;;;;4.63;3.00;;;;;;;;;;4963813;28;20541;-71
2023/07/19 09:29:28;;;;;;;4.93;3.20;;;;;;;;;;4998995;28;20522;-70
2023/07/19 09:31:53;;;;;;;4.97;3.17;;;;;;;;;;4978951;28;20034;-70
2023/07/19 09:34:22;;;;;;;4.80;3.42;;;;;;;;;;4998136;28;20020;-69
2023/07/19 09:36:48;;;;;;;3.80;2.90;;;;;;;;;;4996925;28;20505;-69
2023/07/19 09:39:13;;;;;;;4.07;2.65;;;;;;;;;;4981320;28;20057;-73
2023/07/19 09:41:39;;;;;;;4.25;2.90;;;;;;;;;;4981143;28;20053;-69
2023/07/19 09:44:09;;;;;;;4.13;2.90;;;;;;;;;;4998008;28;20474;-71
2023/07/19 09:46:34;;;;;;;4.57;3.28;;;;;;;;;;4980000;28;20296;-69
2023/07/19 09:48:59;;;;;;;4.47;3.08;;;;;;;;;;4972916;28;20038;-70
2023/07/19 09:51:25;;;;;;;4.90;2.90;;;;;;;;;;4995050;28;20027;-69
2023/07/19 09:53:50;;;;;;;4.23;2.93;;;;;;;;;;4997475;28;20787;-69
2023/07/19 09:56:15;;;;;;;5.50;3.17;;;;;;;;;;4979600;28;20463;-70
2023/07/19 09:58:40;;;;;;;4.07;2.70;;;;;;;;;;4996910;28;20469;-70
2023/07/19 10:01:06;;;;;;;4.40;3.00;;;;;;;;;;4976878;28;20297;-69
2023/07/19 10:03:35;;;;;;;4.20;2.60;;;;;;;;;;4977986;28;20048;-71
2023/07/19 10:06:00;;;;;;;4.18;2.70;;;;;;;;;;5020785;23;20265;-70
2023/07/19 10:08:25;;;;;;;3.70;2.50;;;;;;;;;;5020827;28;20041;-70
2023/07/19 10:10:57;;;;;;;2.97;2.43;;;;;;;;;;4987897;28;20367;-70
2023/07/19 10:13:29;;;;;;;3.40;2.50;;;;;;;;;;5004021;28;20370;-69
2023/07/19 10:15:55;;;;;;;3.80;2.80;;;;;;;;;;5019070;28;20422;-69
2023/07/19 10:18:20;;;;;;;3.87;2.57;;;;;;;;;;5001322;28;20033;-70
2023/07/19 10:20:58;;;;;;;3.28;2.40;;;;;;;;;;5021394;28;20661;-70
2023/07/19 10:23:24;;;;;;;3.55;2.53;;;;;;;;;;5019962;28;20133;-68
2023/07/19 10:25:49;;;;;;;3.53;2.50;;;;;;;;;;5019738;23;20121;-68
2023/07/19 10:28:24;;;;;;;3.28;2.70;;;;;;;;;;5001843;28;20030;-67
2023/07/19 10:30:52;;;;;;;3.80;2.55;;;;;;;;;;4992924;28;20058;-66
2023/07/19 10:33:21;;;;;;;4.60;2.90;;;;;;;;;;4991905;28;20030;-65
2023/07/19 10:35:47;;;;;;;3.55;2.63;;;;;;;;;;4991669;28;20034;-64
2023/07/19 10:38:13;;;;;;;3.75;2.58;;;;;;;;;;4999457;28;20030;-65
2023/07/19 10:40:38;;;;;;;3.78;2.63;;;;;;;;;;5001214;28;20034;-65
2023/07/19 10:43:04;;;;;;;3.70;2.87;;;;;;;;;;4997053;28;20089;-67
2023/07/19 10:45:29;;;;;;;3.00;2.23;;;;;;;;;;4995858;28;20395;-63
2023/07/19 10:47:58;;;;;;;3.83;2.60;;;;;;;;;;4998732;28;20062;-65
2023/07/19 10:50:23;;;;;;;3.13;2.42;;;;;;;;;;4980838;28;20502;-65
2023/07/19 10:52:49;;;;;;;3.92;2.60;;;;;;;;;;4985307;28;20076;-65
2023/07/19 10:55:14;;;;;;;3.47;2.60;;;;;;;;;;4980208;28;20031;-65
2023/07/19 10:57:39;;;;;;;3.17;2.40;;;;;;;;;;4998889;28;20296;-65
2023/07/19 11:00:12;;;;;;;3.38;2.55;;;;;;;;;;5005426;28;20406;-66
2023/07/19 11:02:38;;;;;;;3.30;2.60;;;;;;;;;;4999345;28;20097;-66
2023/07/19 11:05:05;;;;;;;3.38;2.40;;;;;;;;;;5002857;28;20795;-65
2023/07/19 11:07:31;;;;;;;3.38;2.38;;;;;;;;;;5000698;28;20072;-65
2023/07/19 11:09:56;;;;;;;3.10;2.50;;;;;;;;;;4999779;28;20049;-65
2023/07/19 11:12:21;;;;;;;2.83;2.42;;;;;;;;;;4999060;28;20038;-66
2023/07/19 11:14:54;;;;;;;3.60;2.60;;;;;;;;;;4989630;28;20038;-65
2023/07/19 11:17:26;;;;;;;3.33;2.42;;;;;;;;;;5002194;28;20069;-65
2023/07/19 11:19:51;;;;;;;3.58;2.20;;;;;;;;;;5003343;28;20050;-66
2023/07/19 11:22:20;;;;;;;3.90;2.60;;;;;;;;;;5005686;28;20033;-65
2023/07/19 11:24:45;;;;;;;2.95;2.22;;;;;;;;;;4998933;28;20292;-66
2023/07/19 11:27:12;;;;;;;3.90;2.70;;;;;;;;;;5000151;28;20494;-65
2023/07/19 11:29:37;;;;;;;3.65;2.65;;;;;;;;;;5000570;28;20129;-66
2023/07/19 11:32:19;;;;;;;2.85;2.20;;;;;;;;;;4980779;28;20191;-65
2023/07/19 11:34:54;;;;;;;4.63;2.60;;;;;;;;;;4998251;28;20260;-65
2023/07/19 11:37:20;;;;;;;4.22;2.47;;;;;;;;;;4987116;28;20030;-67
2023/07/19 11:39:46;;;;;;;2.97;2.13;;;;;;;;;;4998692;28;20038;-65
2023/07/19 11:42:11;;;;;;;3.17;2.42;;;;;;;;;;4998451;28;20132;-66
2023/07/19 11:44:43;;;;;;;3.10;2.30;;;;;;;;;;4998205;28;20076;-65
2023/07/19 11:47:08;;;;;;;3.58;2.40;;;;;;;;;;4997260;28;20053;-66
2023/07/19 11:49:33;;;;;;;3.53;2.45;;;;;;;;;;4997662;28;20047;-65
2023/07/19 11:51:59;;;;;;;3.23;2.80;;;;;;;;;;4983635;28;20112;-66
2023/07/19 11:54:24;;;;;;;3.20;2.30;;;;;;;;;;5002920;28;20292;-67
2023/07/19 11:56:49;;;;;;;2.97;2.23;;;;;;;;;;4997902;28;20898;-65
2023/07/19 11:59:14;;;;;;;4.10;2.30;;;;;;;;;;4997948;28;20395;-65
2023/07/19 12:01:40;;;;;;;3.77;2.20;;;;;;;;;;4992473;28;20285;-65
2023/07/19 12:04:05;;;;;;;2.72;2.10;;;;;;;;;;4995236;28;20842;-66
2023/07/19 12:06:31;;;;;;;3.03;2.50;;;;;;;;;;4997253;28;20045;-65
2023/07/19 12:08:56;;;;;;;3.20;2.40;;;;;;;;;;5004709;28;20033;-66
2023/07/19 12:11:22;;;;;;;3.45;2.33;;;;;;;;;;5004037;28;20045;-66
2023/07/19 12:13:49;;;;;;;2.90;2.50;;;;;;;;;;5001556;28;20034;-70
2023/07/19 12:16:16;;;;;;;3.47;2.28;;;;;;;;;;5006987;28;20111;-64
2023/07/19 12:18:41;;;;;;;3.58;2.47;;;;;;;;;;5004155;28;20033;-66
2023/07/19 12:21:07;;;;;;;3.20;2.20;;;;;;;;;;5008253;28;20358;-67
2023/07/19 12:23:32;;;;;;;3.72;2.60;;;;;;;;;;4991066;28;20413;-68
2023/07/19 12:25:57;;;;;;;4.70;2.20;;;;;;;;;;5008209;28;20053;-64
2023/07/19 12:28:23;;;;;;;3.08;2.30;;;;;;;;;;5004289;28;20435;-67
2023/07/19 12:30:48;;;;;;;3.92;2.60;;;;;;;;;;5005700;28;20042;-66
2023/07/19 12:33:14;;;;;;;3.75;2.20;;;;;;;;;;5008176;28;20026;-65
2023/07/19 12:35:39;;;;;;;3.67;2.40;;;;;;;;;;4990043;28;20713;-66
2023/07/19 12:38:04;;;;;;;3.08;2.25;;;;;;;;;;5007977;28;20108;-66
2023/07/19 12:40:30;;;;;;;3.37;2.37;;;;;;;;;;5006569;28;20064;-67
2023/07/19 12:42:56;;;;;;;3.72;2.42;;;;;;;;;;4988394;28;20025;-66
2023/07/19 12:45:23;;;;;;;3.87;2.50;;;;;;;;;;4972141;28;20029;-65
2023/07/19 12:47:49;;;;;;;2.97;2.22;;;;;;;;;;4991748;28;20301;-66
2023/07/19 12:50:14;;;;;;;2.90;2.30;;;;;;;;;;4985987;28;20065;-66
2023/07/19 12:52:39;;;;;;;3.33;2.30;;;;;;;;;;5007432;28;20049;-65
2023/07/19 12:55:05;;;;;;;2.90;2.20;;;;;;;;;;5008157;28;20033;-66
2023/07/19 12:57:30;;;;;;;3.45;2.20;;;;;;;;;;5006321;28;20033;-64
2023/07/19 12:59:55;;;;;;;2.57;2.00;;;;;;;;;;4993875;28;20026;-65
2023/07/19 13:02:20;;;;;;;3.43;2.13;;;;;;;;;;5006085;28;20140;-66
2023/07/19 13:04:46;;;;;;;4.27;2.50;;;;;;;;;;4989446;28;20010;-65
2023/07/19 13:07:14;;;;;;;3.97;2.20;;;;;;;;;;5006646;28;20738;-65
2023/07/19 13:09:39;;;;;;;3.00;2.30;;;;;;;;;;5006422;28;20042;-66
2023/07/19 13:12:05;;;;;;;2.60;1.83;;;;;;;;;;5007417;28;20034;-66
2023/07/19 13:14:30;;;;;;;3.17;2.25;;;;;;;;;;4995000;28;20042;-66
2023/07/19 13:16:56;;;;;;;2.95;2.42;;;;;;;;;;5001162;28;20504;-66
2023/07/19 13:19:22;;;;;;;3.03;2.27;;;;;;;;;;4992114;28;20053;-66
2023/07/19 13:21:47;;;;;;;3.00;2.20;;;;;;;;;;4993506;28;20269;-65
2023/07/19 13:24:13;;;;;;;3.38;2.22;;;;;;;;;;4997744;28;20096;-67
2023/07/19 13:26:38;;;;;;;2.53;2.20;;;;;;;;;;5007446;28;20049;-65
2023/07/19 13:29:03;;;;;;;2.97;2.50;;;;;;;;;;5002135;28;21433;-65
2023/07/19 13:31:28;;;;;;;2.87;1.80;;;;;;;;;;5006661;28;20058;-66
2023/07/19 13:33:56;;;;;;;2.63;2.10;;;;;;;;;;4988974;28;20273;-66
2023/07/19 13:36:21;;;;;;;2.97;2.30;;;;;;;;;;5007093;28;20641;-66
2023/07/19 13:38:46;;;;;;;2.92;2.40;;;;;;;;;;5001055;28;20097;-66
2023/07/19 13:41:12;;;;;;;3.23;2.50;;;;;;;;;;5002586;28;20034;-66
2023/07/19 13:43:37;;;;;;;3.57;2.10;;;;;;;;;;4997082;28;20605;-65
2023/07/19 13:46:02;;;;;;;2.67;2.00;;;;;;;;;;4991958;28;20033;-67
2023/07/19 13:48:27;;;;;;;2.35;1.80;;;;;;;;;;5003312;28;20068;-65
2023/07/19 13:50:53;;;;;;;2.88;2.00;;;;;;;;;;4988482;28;20046;-65
2023/07/19 13:53:18;;;;;;;2.67;2.20;;;;;;;;;;5006586;28;20041;-65
2023/07/19 13:55:43;;;;;;;2.85;2.10;;;;;;;;;;4988994;28;20029;-65
2023/07/19 13:58:08;;;;;;;2.50;2.03;;;;;;;;;;5002369;28;20422;-65
2023/07/19 14:00:34;;;;;;;3.03;2.00;;;;;;;;;;5006205;28;20132;-64
2023/07/19 14:02:59;;;;;;;3.00;2.22;;;;;;;;;;5006194;28;20107;-66
2023/07/19 14:05:24;;;;;;;3.15;2.30;;;;;;;;;;5006843;28;20053;-67
2023/07/19 14:07:50;;;;;;;2.63;1.90;;;;;;;;;;4987995;28;20141;-68
2023/07/19 14:10:15;;;;;;;2.67;2.20;;;;;;;;;;4999887;28;20300;-67
2023/07/19 14:12:41;;;;;;;3.07;2.20;;;;;;;;;;5005897;28;20125;-65
2023/07/19 14:15:06;;;;;;;3.10;2.40;;;;;;;;;;5007782;28;20276;-66
2023/07/19 14:17:32;;;;;;;3.05;2.10;;;;;;;;;;5005607;28;20539;-67
2023/07/19 14:19:57;;;;;;;2.58;2.08;;;;;;;;;;4984676;28;20738;-66
2023/07/19 14:22:23;;;;;;;4.00;2.15;;;;;;;;;;5006948;28;20033;-66
2023/07/19 14:24:48;;;;;;;3.30;2.23;;;;;;;;;;4988282;28;20411;-65
2023/07/19 14:27:13;;;;;;;3.00;2.20;;;;;;;;;;5006100;28;20307;-64
2023/07/19 14:29:40;;;;;;;2.93;1.97;;;;;;;;;;5001275;28;20505;-65
2023/07/19 14:32:06;;;;;;;2.55;2.00;;;;;;;;;;5006688;28;20984;-65
2023/07/19 14:34:31;;;;;;;3.05;2.15;;;;;;;;;;5004567;28;20044;-65